Time;durP1;ratioP1;P1;durP2;ratioP2;P2;SDS_P1;SDS_P2;PMS_P1;PMS_P2;Temp;Humidity;BMP_temperature;BMP_pressure;BME280_temperature;BME280_humidity;BME280_pressure;Samples;Min_cycle;Max_cycle;Signal;HPM_P1;HPM_P2
2022/08/13 00:01:43;;;;;;;2.30;0.75;;;12.20;56.50;;;;;;5028603;28;20199;-36
2022/08/13 00:04:15;;;;;;;2.45;0.90;;;12.20;56.50;;;;;;5028132;28;20202;-41
2022/08/13 00:09:36;;;;;;;1.80;1.02;;;12.30;56.70;;;;;;5017101;28;20705;-36
2022/08/13 00:14:57;;;;;;;2.42;1.10;;;12.40;56.60;;;;;;5017613;28;20619;-36
2022/08/13 00:17:28;;;;;;;1.48;1.00;;;12.40;56.60;;;;;;5027929;28;20227;-36
2022/08/13 00:19:59;;;;;;;0.98;0.82;;;12.50;56.50;;;;;;5025259;28;20287;-36
2022/08/13 00:22:30;;;;;;;1.98;1.10;;;12.50;56.70;;;;;;5027927;28;20743;-38
2022/08/13 00:25:02;;;;;;;2.90;1.00;;;12.60;56.80;;;;;;5025112;28;20202;-42
2022/08/13 00:27:33;;;;;;;2.70;1.00;;;12.60;56.80;;;;;;5028606;28;20690;-38
2022/08/13 00:30:07;;;;;;;0.77;0.55;;;12.70;56.90;;;;;;5027442;28;20223;-36
2022/08/13 00:32:38;;;;;;;1.15;0.90;;;12.70;56.90;;;;;;5020254;28;20206;-36
2022/08/13 00:35:09;;;;;;;5.80;1.05;;;12.80;56.90;;;;;;5030243;28;20646;-36
2022/08/13 00:37:41;;;;;;;2.28;0.80;;;12.80;56.90;;;;;;5032975;28;20219;-36
2022/08/13 00:40:13;;;;;;;1.08;0.70;;;12.90;56.90;;;;;;5027614;28;20205;-36
2022/08/13 00:42:44;;;;;;;1.33;0.73;;;12.90;56.80;;;;;;5031284;28;20756;-36
2022/08/13 00:45:17;;;;;;;1.17;1.00;;;12.90;56.80;;;;;;5025503;28;20203;-35
2022/08/13 00:50:36;;;;;;;1.58;1.02;;;13.00;56.90;;;;;;5025359;28;20657;-39
2022/08/13 00:53:18;;;;;;;1.27;0.90;;;13.00;56.80;;;;;;5028639;28;20219;-36
2022/08/13 00:55:50;;;;;;;2.35;0.90;;;13.10;56.90;;;;;;5033120;28;20239;-35
2022/08/13 00:58:22;;;;;;;0.90;0.80;;;13.10;56.90;;;;;;5032084;28;20193;-36
2022/08/13 01:01:01;;;;;;;1.23;0.65;;;13.20;56.90;;;;;;5032744;28;20208;-39
2022/08/13 01:03:33;;;;;;;1.52;1.02;;;13.20;56.90;;;;;;5032642;28;20203;-50
2022/08/13 01:06:04;;;;;;;1.27;0.82;;;13.20;56.90;;;;;;5032048;28;20228;-39
2022/08/13 01:08:38;;;;;;;0.90;0.75;;;13.30;56.90;;;;;;5021709;28;20227;-46
2022/08/13 01:11:11;;;;;;;2.15;1.00;;;13.30;56.90;;;;;;5031126;28;20266;-47
2022/08/13 01:13:44;;;;;;;1.63;0.93;;;13.40;56.90;;;;;;5029573;28;20192;-38
2022/08/13 01:16:17;;;;;;;1.95;0.82;;;13.40;56.90;;;;;;5031240;28;20404;-36
2022/08/13 01:18:50;;;;;;;1.33;0.90;;;13.40;56.90;;;;;;5029906;28;20197;-36
2022/08/13 01:21:24;;;;;;;1.23;0.85;;;13.40;56.90;;;;;;5032426;28;20204;-36
2022/08/13 01:23:58;;;;;;;1.02;0.80;;;13.50;56.90;;;;;;5030495;28;20628;-36
2022/08/13 01:26:32;;;;;;;1.60;0.82;;;13.50;56.90;;;;;;5031641;28;20255;-44
2022/08/13 01:29:05;;;;;;;0.85;0.70;;;13.50;56.90;;;;;;5031676;28;20203;-36
2022/08/13 01:31:36;;;;;;;4.38;1.70;;;13.60;56.80;;;;;;5016506;28;20238;-38
2022/08/13 01:34:07;;;;;;;2.75;1.60;;;13.60;56.80;;;;;;5029588;28;20196;-36
2022/08/13 01:36:42;;;;;;;2.58;1.60;;;13.60;57.10;;;;;;5031938;28;20313;-45
2022/08/13 01:39:15;;;;;;;4.57;1.83;;;13.70;57.50;;;;;;5031969;28;20294;-36
2022/08/13 01:41:46;;;;;;;2.70;1.48;;;13.80;57.60;;;;;;5033817;28;20555;-37
2022/08/13 01:44:16;;;;;;;3.35;1.30;;;13.80;57.50;;;;;;5031753;28;20208;-36
2022/08/13 01:52:21;;;;;;;5.82;2.70;;;13.90;57.20;;;;;;5031824;28;20195;-41
2022/08/13 01:54:53;;;;;;;7.93;2.33;;;14.00;57.20;;;;;;5030718;28;20200;-39
2022/08/13 01:57:25;;;;;;;4.80;2.10;;;14.00;57.20;;;;;;5031284;28;20235;-36
2022/08/13 01:59:55;;;;;;;5.68;1.65;;;14.10;57.20;;;;;;5031020;28;20850;-43
2022/08/13 02:02:27;;;;;;;4.32;1.80;;;14.10;57.10;;;;;;5031470;28;20200;-40
2022/08/13 02:04:58;;;;;;;5.00;1.80;;;14.10;57.00;;;;;;5031700;28;20196;-39
2022/08/13 02:07:29;;;;;;;4.07;1.90;;;14.10;56.90;;;;;;5031495;28;20223;-39
2022/08/13 02:10:02;;;;;;;3.78;1.80;;;14.20;56.90;;;;;;5031805;28;20192;-36
2022/08/13 02:12:33;;;;;;;3.53;1.85;;;14.20;56.80;;;;;;5031256;28;20259;-38
2022/08/13 02:15:05;;;;;;;3.25;1.63;;;14.30;56.90;;;;;;5031338;28;20798;-36
2022/08/13 02:17:41;;;;;;;5.43;2.10;;;14.30;56.80;;;;;;5030881;28;20227;-39
2022/08/13 02:20:17;;;;;;;4.35;1.90;;;14.30;56.70;;;;;;5031074;28;20254;-37
2022/08/13 02:22:49;;;;;;;2.85;1.55;;;14.40;56.70;;;;;;5030843;28;20207;-37
2022/08/13 02:25:22;;;;;;;3.85;2.00;;;14.40;56.70;;;;;;5030689;28;20254;-38
2022/08/13 02:27:55;;;;;;;3.88;1.75;;;14.40;56.70;;;;;;5030521;28;20200;-36
2022/08/13 02:30:27;;;;;;;5.50;1.90;;;14.50;56.70;;;;;;5031104;28;20208;-36
2022/08/13 02:33:00;;;;;;;5.93;1.80;;;14.50;56.60;;;;;;5031079;28;20286;-37
2022/08/13 02:35:31;;;;;;;4.55;1.60;;;14.50;57.20;;;;;;5030881;28;20204;-36
2022/08/13 02:38:01;;;;;;;3.40;1.70;;;14.60;56.60;;;;;;5030976;28;20695;-36
2022/08/13 02:43:21;;;;;;;2.65;1.65;;;14.60;56.50;;;;;;5015072;28;20267;-36
2022/08/13 02:45:53;;;;;;;3.40;1.55;;;14.70;56.40;;;;;;5023768;28;20231;-36
2022/08/13 02:48:24;;;;;;;3.60;1.75;;;14.70;56.30;;;;;;5030489;28;20745;-36
2022/08/13 02:50:57;;;;;;;2.67;1.52;;;14.80;56.30;;;;;;5030540;28;20200;-36
2022/08/13 02:53:27;;;;;;;2.80;1.85;;;14.80;56.30;;;;;;5030456;28;20199;-37
2022/08/13 02:56:00;;;;;;;2.33;1.50;;;14.90;56.30;;;;;;5029573;28;20224;-43
2022/08/13 02:58:31;;;;;;;3.38;1.73;;;14.90;56.20;;;;;;5030572;28;20258;-39
2022/08/13 03:01:03;;;;;;;2.28;1.70;;;14.90;56.20;;;;;;5030415;28;20210;-44
2022/08/13 03:03:34;;;;;;;3.70;1.58;;;15.00;56.20;;;;;;5030302;28;20208;-49
2022/08/13 03:06:08;;;;;;;2.83;1.60;;;15.00;56.20;;;;;;5030333;28;20220;-45
2022/08/13 03:08:40;;;;;;;2.30;1.60;;;15.10;56.20;;;;;;5030408;28;20570;-46
2022/08/13 03:11:16;;;;;;;4.40;1.60;;;15.10;56.10;;;;;;5030552;28;20198;-39
2022/08/13 03:13:51;;;;;;;3.65;1.90;;;15.10;56.00;;;;;;5030150;28;20196;-46
2022/08/13 03:16:24;;;;;;;2.22;1.67;;;15.20;56.10;;;;;;5030274;28;20228;-42
2022/08/13 03:18:57;;;;;;;2.38;1.60;;;15.20;56.00;;;;;;5030187;28;20570;-50
2022/08/13 03:21:29;;;;;;;2.47;1.60;;;15.20;55.90;;;;;;5030279;28;20192;-45
2022/08/13 03:24:00;;;;;;;3.35;1.77;;;15.30;55.90;;;;;;5030224;28;20192;-46
2022/08/13 03:26:33;;;;;;;1.85;1.42;;;15.30;55.80;;;;;;5029458;28;20242;-47
2022/08/13 03:29:06;;;;;;;2.88;1.25;;;15.30;55.80;;;;;;5029818;28;20196;-39
2022/08/13 03:31:37;;;;;;;2.65;1.60;;;15.40;55.70;;;;;;5030068;28;20193;-49
2022/08/13 03:34:08;;;;;;;3.08;1.73;;;15.40;55.60;;;;;;5029420;28;20207;-41
2022/08/13 03:36:39;;;;;;;3.53;2.08;;;15.40;55.50;;;;;;5029295;28;20231;-42
2022/08/13 03:39:10;;;;;;;2.33;1.50;;;15.40;55.50;;;;;;5029359;28;20200;-44
2022/08/13 03:41:45;;;;;;;2.80;1.70;;;15.50;55.60;;;;;;5029426;28;20200;-45
2022/08/13 03:44:16;;;;;;;2.40;1.45;;;15.50;55.40;;;;;;5029020;28;20741;-46
2022/08/13 03:46:47;;;;;;;3.90;1.88;;;15.50;56.10;;;;;;5029456;28;20212;-40
2022/08/13 03:49:19;;;;;;;3.65;1.90;;;15.50;55.50;;;;;;5029868;28;20192;-43
2022/08/13 03:51:50;;;;;;;2.47;1.70;;;15.60;55.50;;;;;;5030231;28;20203;-45
2022/08/13 03:54:21;;;;;;;1.70;1.33;;;15.60;55.40;;;;;;5028817;28;20578;-38
2022/08/13 03:56:53;;;;;;;2.22;1.70;;;15.60;55.40;;;;;;5026472;28;20684;-45
2022/08/13 03:59:25;;;;;;;3.15;1.77;;;15.60;55.40;;;;;;5029238;28;20287;-42
2022/08/13 04:04:47;;;;;;;2.20;1.67;;;15.70;55.40;;;;;;5028347;28;20279;-52
2022/08/13 04:07:19;;;;;;;2.33;1.52;;;15.80;55.40;;;;;;5027933;28;20220;-45
2022/08/13 04:09:50;;;;;;;2.33;1.40;;;15.80;55.30;;;;;;5028810;28;20200;-51
2022/08/13 04:12:23;;;;;;;2.33;1.60;;;15.80;55.30;;;;;;5008705;28;20197;-54
2022/08/13 04:14:54;;;;;;;4.85;1.60;;;15.80;55.10;;;;;;5008566;28;20219;-54
2022/08/13 04:17:25;;;;;;;2.22;1.80;;;15.80;55.10;;;;;;5008558;28;20233;-57
2022/08/13 04:19:55;;;;;;;3.53;1.63;;;15.80;55.00;;;;;;5008830;28;20207;-51
2022/08/13 04:22:27;;;;;;;3.08;1.88;;;15.90;55.00;;;;;;5008822;28;20199;-55
2022/08/13 04:24:58;;;;;;;3.47;1.70;;;15.90;55.00;;;;;;5008944;28;20237;-48
2022/08/13 04:27:32;;;;;;;2.70;1.60;;;15.90;54.90;;;;;;5022275;28;20262;-49
2022/08/13 04:30:03;;;;;;;2.70;1.55;;;15.90;54.80;;;;;;5028508;28;20222;-48
2022/08/13 04:32:43;;;;;;;3.20;1.58;;;15.90;54.80;;;;;;5028736;28;20207;-53
2022/08/13 04:35:14;;;;;;;2.50;1.50;;;16.00;54.90;;;;;;5028446;28;20204;-51
2022/08/13 04:37:45;;;;;;;3.08;1.67;;;16.00;54.90;;;;;;5024117;28;20239;-52
2022/08/13 04:40:16;;;;;;;2.83;1.60;;;16.00;54.90;;;;;;5010241;28;20575;-52
2022/08/13 04:42:55;;;;;;;2.78;1.58;;;16.00;54.90;;;;;;5027971;28;20293;-47
2022/08/13 04:45:27;;;;;;;2.03;1.70;;;16.00;54.90;;;;;;5028354;28;20198;-55
2022/08/13 04:47:59;;;;;;;2.85;1.60;;;16.00;54.90;;;;;;5028185;28;20861;-57
2022/08/13 04:50:32;;;;;;;2.42;1.70;;;16.00;54.90;;;;;;5028416;28;20656;-49
2022/08/13 04:53:03;;;;;;;1.90;1.52;;;16.00;54.80;;;;;;4913916;28;3292276;-52
2022/08/13 04:55:34;;;;;;;2.50;1.80;;;16.10;54.90;;;;;;5028660;28;20699;-50
2022/08/13 04:58:08;;;;;;;2.05;1.52;;;16.10;54.90;;;;;;5028655;28;20759;-52
2022/08/13 05:00:39;;;;;;;2.13;1.40;;;16.10;54.90;;;;;;5029109;28;20203;-47
2022/08/13 05:03:14;;;;;;;2.45;1.70;;;16.10;54.90;;;;;;5028751;28;20222;-41
2022/08/13 05:05:45;;;;;;;2.65;1.88;;;16.10;54.90;;;;;;5028726;28;20227;-54
2022/08/13 05:08:17;;;;;;;2.90;1.80;;;16.10;54.90;;;;;;5028764;28;20218;-51
2022/08/13 05:10:48;;;;;;;2.75;2.00;;;16.10;54.90;;;;;;5028945;28;20235;-53
2022/08/13 05:13:29;;;;;;;3.38;1.90;;;16.10;54.80;;;;;;5028296;28;20192;-51
2022/08/13 05:16:00;;;;;;;3.97;2.28;;;16.10;54.80;;;;;;5028514;28;20216;-52
2022/08/13 05:18:32;;;;;;;2.92;2.25;;;16.10;54.90;;;;;;5028872;28;20247;-48
2022/08/13 05:21:05;;;;;;;3.70;2.45;;;16.10;54.90;;;;;;5032598;28;20203;-48
2022/08/13 05:23:37;;;;;;;3.55;2.20;;;16.10;54.90;;;;;;5032506;28;20250;-54
2022/08/13 05:26:09;;;;;;;3.08;2.00;;;16.10;54.90;;;;;;5031728;28;20278;-46
2022/08/13 05:28:41;;;;;;;3.38;2.47;;;16.10;54.80;;;;;;5031958;28;20200;-53
2022/08/13 05:31:12;;;;;;;4.20;2.42;;;16.10;54.90;;;;;;5032318;28;20199;-51
2022/08/13 05:33:43;;;;;;;4.13;2.50;;;16.10;54.80;;;;;;5032530;28;20196;-48
2022/08/13 05:36:14;;;;;;;3.85;2.70;;;16.10;54.90;;;;;;5032347;28;20223;-55
2022/08/13 05:38:48;;;;;;;4.40;2.80;;;16.10;54.90;;;;;;5031727;28;20224;-50
2022/08/13 05:41:19;;;;;;;3.60;2.47;;;16.10;55.00;;;;;;5031598;28;20484;-46
2022/08/13 05:43:52;;;;;;;4.03;2.45;;;16.10;55.00;;;;;;5032057;28;20203;-52
2022/08/13 05:46:24;;;;;;;3.75;2.28;;;16.10;55.00;;;;;;5031771;28;20216;-38
2022/08/13 05:49:00;;;;;;;3.95;2.67;;;16.00;54.90;;;;;;5031751;28;20192;-43
2022/08/13 05:51:33;;;;;;;3.35;2.60;;;16.00;54.90;;;;;;5019632;28;20199;-38
2022/08/13 05:54:04;;;;;;;4.30;2.85;;;16.00;54.90;;;;;;5031370;28;20206;-40
2022/08/13 05:56:36;;;;;;;4.00;2.72;;;16.00;54.90;;;;;;5031204;28;20220;-41
2022/08/13 06:03:22;;;;;;;4.82;2.78;;;16.00;54.90;;;;;;5031516;28;20208;-38
2022/08/13 06:04:49;;;;;;;4.07;2.97;;;16.00;54.80;;;;;;5031174;28;20195;-45
2022/08/13 06:07:19;;;;;;;4.63;3.25;;;15.90;54.70;;;;;;5031156;28;20259;-38
2022/08/13 06:09:51;;;;;;;3.80;2.50;;;15.90;54.80;;;;;;5031853;28;20207;-47
2022/08/13 06:12:22;;;;;;;4.60;3.05;;;15.90;54.80;;;;;;5030697;28;20201;-38
2022/08/13 06:14:58;;;;;;;3.53;2.50;;;15.90;54.90;;;;;;5031015;28;20207;-40
2022/08/13 06:17:29;;;;;;;4.35;3.00;;;15.90;54.90;;;;;;5030573;28;20273;-42
2022/08/13 06:20:03;;;;;;;3.75;2.90;;;15.80;54.80;;;;;;5030820;28;20200;-36
2022/08/13 06:22:36;;;;;;;4.30;2.70;;;15.90;54.80;;;;;;5030772;28;20200;-41
2022/08/13 06:25:08;;;;;;;4.72;3.00;;;15.80;54.80;;;;;;5031000;28;20196;-44
2022/08/13 06:27:39;;;;;;;4.00;2.83;;;15.80;54.80;;;;;;5030480;28;20228;-36
2022/08/13 06:30:14;;;;;;;5.85;3.00;;;15.80;54.70;;;;;;5030610;28;20200;-37
2022/08/13 06:32:46;;;;;;;4.05;2.78;;;15.70;54.80;;;;;;5030495;28;20196;-36
2022/08/13 06:35:17;;;;;;;4.28;3.08;;;15.70;54.80;;;;;;5031124;28;20553;-36
2022/08/13 06:37:48;;;;;;;4.82;3.58;;;15.70;54.70;;;;;;5030891;28;20228;-36
2022/08/13 06:40:22;;;;;;;4.00;3.05;;;15.70;54.70;;;;;;5031133;28;20200;-37
2022/08/13 06:42:53;;;;;;;4.43;3.00;;;15.60;54.70;;;;;;5029379;28;20670;-38
2022/08/13 06:45:26;;;;;;;3.80;2.95;;;15.60;54.70;;;;;;5019247;28;20196;-36
2022/08/13 06:47:57;;;;;;;5.22;3.13;;;15.60;54.80;;;;;;5010830;28;20309;-36
2022/08/13 06:50:28;;;;;;;4.22;2.90;;;15.60;54.80;;;;;;5011169;28;20203;-38
2022/08/13 06:52:58;;;;;;;5.30;2.90;;;15.50;54.80;;;;;;5010773;28;20205;-41
2022/08/13 06:55:29;;;;;;;3.88;2.47;;;15.60;54.80;;;;;;5010800;28;20196;-36
2022/08/13 06:58:01;;;;;;;4.22;2.70;;;15.50;54.70;;;;;;5027577;28;20231;-38
2022/08/13 07:00:34;;;;;;;3.92;2.95;;;15.50;54.70;;;;;;5029944;28;20196;-50
2022/08/13 07:03:05;;;;;;;3.42;2.70;;;15.50;54.80;;;;;;5030464;28;20235;-37
2022/08/13 07:05:38;;;;;;;5.22;3.15;;;15.40;54.80;;;;;;5030037;28;20572;-41
2022/08/13 07:08:11;;;;;;;6.15;2.85;;;15.40;55.00;;;;;;5029938;28;20282;-44
2022/08/13 07:10:44;;;;;;;4.05;2.80;;;15.40;55.00;;;;;;5030657;28;20204;-45
2022/08/13 07:13:15;;;;;;;3.88;2.83;;;15.40;55.10;;;;;;5029446;28;20284;-42
2022/08/13 07:15:51;;;;;;;4.97;2.90;;;15.40;55.50;;;;;;5030042;28;20223;-39
2022/08/13 07:18:22;;;;;;;3.47;2.65;;;15.40;55.60;;;;;;5030468;28;20219;-45
2022/08/13 07:20:53;;;;;;;3.67;2.90;;;15.40;55.50;;;;;;5029835;28;20199;-41
2022/08/13 07:23:23;;;;;;;4.03;3.08;;;15.40;55.40;;;;;;5029618;28;20196;-38
2022/08/13 07:25:55;;;;;;;5.03;3.30;;;15.40;55.40;;;;;;5029442;28;20307;-37
2022/08/13 07:28:27;;;;;;;3.83;2.88;;;15.30;55.30;;;;;;5029428;28;20231;-44
2022/08/13 07:31:00;;;;;;;3.17;2.85;;;15.30;55.30;;;;;;5029657;28;20870;-48
2022/08/13 07:33:30;;;;;;;4.35;3.08;;;15.30;55.30;;;;;;5029357;28;20257;-43
2022/08/13 07:36:06;;;;;;;3.45;2.90;;;15.30;55.30;;;;;;5029867;28;20226;-39
2022/08/13 07:38:40;;;;;;;3.83;2.80;;;15.20;55.20;;;;;;5029971;28;20234;-37
2022/08/13 07:41:12;;;;;;;3.42;2.60;;;15.20;55.20;;;;;;5029415;28;20192;-41
2022/08/13 07:43:46;;;;;;;3.55;2.70;;;15.20;55.30;;;;;;5009151;28;20207;-36
2022/08/13 07:46:19;;;;;;;5.25;3.35;;;15.20;55.30;;;;;;5025746;28;20214;-41
2022/08/13 07:48:52;;;;;;;3.83;2.78;;;15.10;55.30;;;;;;5029597;28;20200;-52
2022/08/13 07:51:24;;;;;;;4.18;2.75;;;15.10;55.30;;;;;;5029476;28;20200;-38
2022/08/13 07:53:58;;;;;;;3.95;2.97;;;15.10;55.30;;;;;;5029111;28;20231;-38
2022/08/13 07:56:31;;;;;;;4.43;2.65;;;15.00;55.30;;;;;;5028175;28;20875;-36
2022/08/13 07:59:03;;;;;;;4.25;2.92;;;15.00;55.30;;;;;;5029197;28;20703;-42
2022/08/13 08:01:45;;;;;;;3.15;2.80;;;15.00;55.30;;;;;;5029145;28;20687;-39
2022/08/13 08:04:17;;;;;;;3.95;3.03;;;15.00;55.30;;;;;;5029022;28;20758;-36
2022/08/13 08:06:49;;;;;;;3.90;2.88;;;15.00;55.30;;;;;;5028901;28;20581;-49
2022/08/13 08:09:23;;;;;;;3.92;3.17;;;14.90;55.30;;;;;;5029516;28;20198;-40
2022/08/13 08:14:41;;;;;;;4.65;2.67;;;14.90;55.40;;;;;;5029086;28;20194;-40
2022/08/13 08:17:13;;;;;;;4.28;2.50;;;14.80;55.30;;;;;;5028354;28;20220;-37
2022/08/13 08:19:46;;;;;;;3.58;2.55;;;14.80;55.40;;;;;;5028886;28;20636;-37
2022/08/13 08:22:17;;;;;;;3.17;2.88;;;14.80;55.40;;;;;;5029058;28;20281;-41
2022/08/13 08:24:50;;;;;;;4.82;3.05;;;14.70;55.50;;;;;;5028973;28;20570;-40
2022/08/13 08:27:23;;;;;;;4.07;2.78;;;14.80;55.60;;;;;;5027952;28;20220;-39
2022/08/13 08:29:54;;;;;;;4.28;2.85;;;14.70;55.50;;;;;;5028460;28;20211;-37
2022/08/13 08:32:27;;;;;;;3.78;2.75;;;14.70;55.50;;;;;;5027660;28;20204;-38
2022/08/13 08:34:59;;;;;;;3.65;3.17;;;14.70;55.50;;;;;;5028611;28;20200;-37
2022/08/13 08:43:10;;;;;;;3.75;2.60;;;14.60;55.50;;;;;;5028586;28;20249;-37
2022/08/13 08:45:43;;;;;;;3.55;2.90;;;14.60;55.60;;;;;;5028637;28;20293;-38
2022/08/13 08:48:19;;;;;;;3.90;2.75;;;14.50;55.60;;;;;;5029038;28;20215;-36
2022/08/13 08:50:49;;;;;;;3.40;2.42;;;14.50;55.60;;;;;;5025533;28;20200;-37
2022/08/13 08:53:23;;;;;;;4.07;2.75;;;14.50;55.60;;;;;;5028980;28;20204;-40
2022/08/13 08:55:54;;;;;;;3.05;2.47;;;14.40;55.60;;;;;;5032587;28;20738;-37
2022/08/13 08:58:26;;;;;;;3.70;2.38;;;14.40;55.70;;;;;;5032275;28;20227;-38
2022/08/13 09:00:59;;;;;;;3.80;2.50;;;14.40;55.70;;;;;;5032584;28;20200;-40
2022/08/13 09:03:32;;;;;;;3.60;2.75;;;14.40;55.80;;;;;;5029161;28;20222;-36
2022/08/13 09:06:02;;;;;;;3.13;2.63;;;14.40;56.00;;;;;;5021130;28;20221;-40
2022/08/13 09:08:37;;;;;;;2.72;2.40;;;14.40;56.00;;;;;;5012506;28;20207;-37
2022/08/13 09:11:12;;;;;;;2.35;2.00;;;14.40;56.00;;;;;;5024666;28;20919;-47
2022/08/13 09:13:49;;;;;;;4.38;2.45;;;14.40;56.00;;;;;;5012871;28;20246;-45
2022/08/13 09:16:20;;;;;;;3.40;2.55;;;14.30;56.00;;;;;;5014000;28;20216;-39
2022/08/13 09:18:54;;;;;;;3.40;2.67;;;14.30;56.00;;;;;;5025814;28;20690;-37
2022/08/13 09:21:25;;;;;;;4.68;2.72;;;14.30;56.10;;;;;;5030093;28;20192;-37
2022/08/13 09:23:57;;;;;;;3.13;2.38;;;14.30;56.10;;;;;;5012835;28;20201;-47
2022/08/13 09:26:27;;;;;;;2.83;2.40;;;14.20;56.00;;;;;;5013280;28;20216;-42
2022/08/13 09:28:59;;;;;;;3.30;2.40;;;14.20;56.00;;;;;;5012710;28;20204;-46
2022/08/13 09:31:29;;;;;;;3.63;2.58;;;14.20;56.10;;;;;;5021768;28;20196;-48
2022/08/13 09:34:02;;;;;;;3.45;2.22;;;14.20;56.10;;;;;;5032783;28;20218;-48
2022/08/13 09:36:34;;;;;;;3.20;2.25;;;14.10;56.40;;;;;;5032318;28;20219;-42
2022/08/13 09:39:04;;;;;;;3.13;2.30;;;14.20;56.80;;;;;;5032328;28;20224;-41
2022/08/13 09:41:40;;;;;;;3.28;2.35;;;14.20;56.70;;;;;;5032430;28;20684;-36
2022/08/13 09:44:14;;;;;;;2.42;2.10;;;14.30;56.80;;;;;;5033011;28;20222;-49
2022/08/13 09:46:45;;;;;;;4.05;2.22;;;14.20;56.60;;;;;;5012861;28;20213;-47
2022/08/13 09:49:18;;;;;;;2.40;2.05;;;14.20;56.60;;;;;;5012435;28;20726;-37
2022/08/13 09:51:49;;;;;;;4.00;2.50;;;14.20;56.60;;;;;;5013813;28;20194;-46
2022/08/13 09:54:22;;;;;;;3.85;2.53;;;14.20;56.60;;;;;;5025939;28;20200;-36
2022/08/13 09:56:53;;;;;;;3.20;2.20;;;14.20;56.50;;;;;;5032946;28;20216;-37
2022/08/13 09:59:24;;;;;;;2.63;2.03;;;14.20;56.50;;;;;;5017476;28;20228;-46
2022/08/13 10:01:56;;;;;;;3.35;2.20;;;14.10;56.50;;;;;;5012612;28;20201;-38
2022/08/13 10:04:30;;;;;;;3.53;2.03;;;14.10;56.50;;;;;;5012546;28;20235;-37
2022/08/13 10:07:01;;;;;;;2.63;2.42;;;14.10;56.60;;;;;;5026917;28;20219;-44
2022/08/13 10:09:34;;;;;;;4.53;2.28;;;14.10;56.50;;;;;;5032567;28;20211;-40
2022/08/13 10:12:05;;;;;;;3.35;2.28;;;14.00;56.50;;;;;;5031504;28;20287;-37
2022/08/13 10:14:36;;;;;;;2.95;2.10;;;14.00;56.40;;;;;;5032503;28;20203;-44
2022/08/13 10:17:08;;;;;;;2.65;2.22;;;14.00;56.40;;;;;;5031977;28;20212;-37
2022/08/13 10:19:40;;;;;;;2.45;2.03;;;14.00;56.50;;;;;;5032046;28;20220;-48
2022/08/13 10:22:11;;;;;;;2.28;2.00;;;14.00;56.40;;;;;;5031508;28;20196;-38
2022/08/13 10:24:42;;;;;;;2.70;2.05;;;14.00;56.40;;;;;;5031759;28;20682;-37
2022/08/13 10:27:13;;;;;;;2.65;1.85;;;14.00;56.50;;;;;;5031532;28;20223;-37
2022/08/13 10:29:43;;;;;;;2.65;2.00;;;13.90;56.40;;;;;;5032480;28;20196;-42
2022/08/13 10:32:14;;;;;;;3.03;2.25;;;13.90;56.40;;;;;;5032418;28;20715;-39
2022/08/13 10:34:47;;;;;;;2.92;1.95;;;13.90;56.50;;;;;;5031837;28;20210;-37
2022/08/13 10:37:21;;;;;;;3.03;2.20;;;13.90;56.50;;;;;;5031801;28;20691;-38
2022/08/13 10:39:51;;;;;;;2.35;1.90;;;13.90;56.50;;;;;;5031125;28;20227;-37
2022/08/13 10:42:23;;;;;;;3.00;2.05;;;13.90;56.50;;;;;;5031750;28;20193;-41
2022/08/13 10:44:54;;;;;;;3.60;1.90;;;13.80;56.50;;;;;;5025717;28;20593;-41
2022/08/13 10:47:25;;;;;;;2.92;2.10;;;13.80;56.40;;;;;;5012236;28;20676;-37
2022/08/13 10:49:58;;;;;;;2.35;2.15;;;13.80;56.40;;;;;;5011639;28;20695;-37
2022/08/13 10:52:28;;;;;;;4.43;2.00;;;13.80;56.50;;;;;;5012090;28;20193;-36
2022/08/13 10:55:00;;;;;;;2.05;1.75;;;13.80;56.40;;;;;;5011328;28;20977;-37
2022/08/13 10:57:30;;;;;;;1.92;1.77;;;13.80;56.40;;;;;;5025162;28;20226;-37
2022/08/13 11:00:01;;;;;;;2.78;1.92;;;13.80;56.40;;;;;;5011630;28;20231;-45
2022/08/13 11:02:32;;;;;;;3.08;2.17;;;13.70;56.40;;;;;;5011644;28;20204;-42
2022/08/13 11:05:05;;;;;;;2.45;1.98;;;13.70;56.40;;;;;;5010807;28;20205;-54
2022/08/13 11:07:36;;;;;;;2.00;1.70;;;13.70;56.40;;;;;;5023119;28;20255;-53
2022/08/13 11:10:09;;;;;;;2.20;1.98;;;13.70;56.40;;;;;;5013678;28;20700;-42
2022/08/13 11:12:50;;;;;;;2.22;1.70;;;13.70;56.50;;;;;;5023727;28;20188;-41
2022/08/13 11:15:22;;;;;;;2.83;1.83;;;13.60;56.50;;;;;;5031636;28;20211;-40
2022/08/13 11:17:54;;;;;;;1.70;1.60;;;13.60;56.40;;;;;;5030268;28;20200;-40
2022/08/13 11:20:28;;;;;;;2.40;1.90;;;13.60;56.40;;;;;;5030383;28;20269;-40
2022/08/13 11:22:59;;;;;;;2.38;1.70;;;13.60;56.50;;;;;;5028494;28;20211;-40
2022/08/13 11:25:30;;;;;;;2.60;2.10;;;13.60;56.40;;;;;;5030738;28;20196;-37
2022/08/13 11:28:01;;;;;;;1.88;1.50;;;13.60;56.40;;;;;;5027038;28;20200;-44
2022/08/13 11:30:31;;;;;;;2.25;1.85;;;13.60;56.40;;;;;;5031973;28;20196;-48
2022/08/13 11:33:02;;;;;;;2.47;1.80;;;13.60;56.40;;;;;;5030612;28;20196;-39
2022/08/13 11:35:35;;;;;;;2.53;1.80;;;13.60;56.40;;;;;;5029916;28;20692;-51
2022/08/13 11:38:10;;;;;;;2.03;1.83;;;13.50;56.30;;;;;;5029460;28;20196;-43
2022/08/13 11:40:41;;;;;;;1.95;1.48;;;13.50;56.30;;;;;;5015312;28;20220;-39
2022/08/13 11:43:12;;;;;;;2.17;1.83;;;13.50;56.30;;;;;;5017757;28;20202;-38
2022/08/13 11:45:43;;;;;;;1.77;1.65;;;13.50;56.40;;;;;;5029583;28;20224;-41
2022/08/13 11:48:13;;;;;;;2.33;1.80;;;13.50;56.40;;;;;;5029663;28;20199;-44
2022/08/13 11:50:46;;;;;;;1.70;1.60;;;13.50;56.40;;;;;;5029629;28;20208;-39
2022/08/13 11:53:17;;;;;;;2.15;1.80;;;13.50;56.40;;;;;;5029493;28;20203;-46
2022/08/13 11:55:48;;;;;;;2.30;1.90;;;13.50;56.40;;;;;;5029480;28;20227;-37
2022/08/13 11:58:19;;;;;;;1.83;1.58;;;13.40;56.40;;;;;;5028324;28;20207;-45
2022/08/13 12:00:51;;;;;;;2.00;1.80;;;13.40;56.40;;;;;;5029718;28;20214;-41
2022/08/13 12:03:22;;;;;;;2.70;1.30;;;13.40;56.30;;;;;;5030044;28;20192;-42
2022/08/13 12:05:55;;;;;;;2.90;1.90;;;13.40;56.30;;;;;;5029695;28;20216;-47
2022/08/13 12:08:26;;;;;;;2.03;1.40;;;13.40;56.30;;;;;;5029321;28;20207;-39
2022/08/13 12:10:56;;;;;;;1.90;1.50;;;13.40;56.30;;;;;;5029635;28;20235;-47
2022/08/13 12:13:27;;;;;;;2.08;1.65;;;13.40;56.30;;;;;;5029161;28;20196;-40
2022/08/13 12:15:58;;;;;;;3.33;1.52;;;13.40;56.30;;;;;;5029393;28;20303;-46
2022/08/13 12:18:28;;;;;;;1.73;1.58;;;13.30;56.20;;;;;;5029030;28;20204;-41
2022/08/13 12:21:01;;;;;;;1.63;1.48;;;13.30;56.30;;;;;;5029035;28;20202;-40
2022/08/13 12:23:32;;;;;;;2.20;1.65;;;13.30;56.30;;;;;;5028956;28;20199;-40
2022/08/13 12:26:02;;;;;;;1.65;1.52;;;13.30;56.30;;;;;;5028876;28;20230;-37
2022/08/13 12:28:33;;;;;;;2.13;1.58;;;13.30;56.30;;;;;;5027785;28;20192;-37
2022/08/13 12:31:05;;;;;;;1.55;1.45;;;13.30;56.30;;;;;;5029471;28;20273;-38
2022/08/13 12:33:37;;;;;;;2.40;1.55;;;13.30;56.30;;;;;;5029550;28;20687;-44
2022/08/13 12:36:14;;;;;;;1.60;1.45;;;13.30;56.30;;;;;;5029317;28;20227;-40
2022/08/13 12:38:44;;;;;;;1.50;1.40;;;13.30;56.30;;;;;;5029021;28;20565;-37
2022/08/13 12:41:15;;;;;;;1.83;1.58;;;13.30;56.20;;;;;;5028798;28;20196;-46
2022/08/13 12:43:46;;;;;;;2.38;1.63;;;13.30;56.30;;;;;;5028435;28;20196;-39
2022/08/13 12:46:17;;;;;;;2.08;1.65;;;13.20;56.20;;;;;;5029032;28;20222;-42
2022/08/13 12:48:48;;;;;;;1.98;1.63;;;13.30;56.30;;;;;;5028544;28;20192;-40
2022/08/13 12:51:20;;;;;;;2.15;1.80;;;13.20;56.20;;;;;;5012553;28;20220;-43
2022/08/13 12:53:51;;;;;;;1.98;1.52;;;13.20;56.30;;;;;;5008844;28;20824;-37
2022/08/13 12:56:22;;;;;;;1.55;1.42;;;13.20;56.20;;;;;;5008929;28;20217;-37
2022/08/13 12:58:53;;;;;;;1.67;1.48;;;13.10;56.20;;;;;;5018433;28;20692;-38
2022/08/13 13:01:25;;;;;;;2.33;1.58;;;13.10;56.20;;;;;;5029293;28;20196;-41
2022/08/13 13:03:55;;;;;;;2.28;1.50;;;13.10;56.20;;;;;;5028883;28;20228;-37
2022/08/13 13:06:28;;;;;;;1.48;1.23;;;13.10;56.20;;;;;;5028968;28;20220;-40
2022/08/13 13:08:59;;;;;;;1.90;1.70;;;13.10;56.20;;;;;;5029017;28;20207;-38
2022/08/13 13:11:29;;;;;;;1.58;1.35;;;13.10;56.20;;;;;;5029184;28;20203;-40
2022/08/13 13:14:00;;;;;;;1.73;1.40;;;13.10;56.20;;;;;;5029038;28;20204;-52
2022/08/13 13:16:32;;;;;;;1.65;1.25;;;13.10;56.10;;;;;;5028680;28;20216;-41
2022/08/13 13:19:03;;;;;;;1.48;1.38;;;13.10;56.10;;;;;;5028971;28;20196;-37
2022/08/13 13:21:35;;;;;;;1.50;1.30;;;13.10;56.10;;;;;;5028941;28;20196;-42
2022/08/13 13:24:07;;;;;;;1.70;1.50;;;13.10;56.20;;;;;;5028700;28;20761;-42
2022/08/13 13:26:38;;;;;;;1.40;1.30;;;13.00;56.10;;;;;;5028630;28;20306;-45
2022/08/13 13:29:10;;;;;;;1.77;1.30;;;13.00;56.10;;;;;;5027937;28;20204;-40
2022/08/13 13:31:41;;;;;;;1.50;1.40;;;13.00;56.10;;;;;;5028222;28;20287;-36
2022/08/13 13:34:12;;;;;;;1.98;1.35;;;13.00;56.10;;;;;;5028124;28;20196;-38
2022/08/13 13:36:44;;;;;;;1.52;1.27;;;13.00;56.20;;;;;;5028604;28;20219;-37
2022/08/13 13:39:15;;;;;;;2.17;1.50;;;13.00;56.20;;;;;;5028820;28;20227;-39
2022/08/13 13:41:46;;;;;;;1.75;1.38;;;12.90;56.20;;;;;;5032311;28;20199;-39
2022/08/13 13:44:16;;;;;;;1.52;1.23;;;12.90;56.10;;;;;;5031667;28;20219;-37